createdAt,value
2023-04-27T00:01:51.369Z,8.12
2023-04-27T00:04:30.870Z,8.33
2023-04-27T00:07:10.416Z,8.50
2023-04-27T00:09:49.655Z,8.13
2023-04-27T00:12:28.918Z,8.37
2023-04-27T00:15:14.407Z,8.42
2023-04-27T00:17:53.703Z,8.11
2023-04-27T00:20:33.270Z,7.48
2023-04-27T00:23:12.850Z,8.04
2023-04-27T00:25:52.132Z,7.77
2023-04-27T00:28:31.348Z,7.79
2023-04-27T00:31:15.792Z,7.04
2023-04-27T00:33:55.087Z,6.72
2023-04-27T00:36:34.341Z,7.11
2023-04-27T00:39:14.228Z,7.72
2023-04-27T00:41:53.718Z,7.59
2023-04-27T00:44:34.167Z,7.02
2023-04-27T00:47:19.355Z,7.54
2023-04-27T00:49:59.340Z,6.89
2023-04-27T00:52:38.896Z,7.25
2023-04-27T00:55:18.181Z,7.18
2023-04-27T00:57:57.662Z,6.36
2023-04-27T01:00:37.629Z,6.07
2023-04-27T01:03:22.422Z,5.60
2023-04-27T01:06:04.575Z,5.52
2023-04-27T01:08:43.836Z,5.92
2023-04-27T01:11:23.192Z,5.50
2023-04-27T01:14:03.495Z,6.20
2023-04-27T01:16:44.059Z,6.48
2023-04-27T01:19:29.912Z,6.76
2023-04-27T01:22:09.473Z,6.84
2023-04-27T01:24:53.977Z,6.76
2023-04-27T01:27:33.481Z,6.48
2023-04-27T01:30:15.172Z,6.65
2023-04-27T01:32:54.479Z,6.02
2023-04-27T01:35:33.838Z,6.34
2023-04-27T01:38:13.257Z,6.29
2023-04-27T01:41:02.986Z,6.43
2023-04-27T01:43:44.841Z,6.62
2023-04-27T01:46:24.134Z,6.18
2023-04-27T01:49:03.669Z,6.20
2023-04-27T01:51:42.918Z,6.11
2023-04-27T01:54:22.144Z,5.99
2023-04-27T01:57:06.469Z,6.14
2023-04-27T01:59:45.760Z,6.03
2023-04-27T02:02:25.261Z,5.80
2023-04-27T02:05:04.900Z,6.10
2023-04-27T02:07:44.141Z,6.32
2023-04-27T02:10:23.498Z,6.23
2023-04-27T02:13:07.895Z,6.38
2023-04-27T02:15:47.401Z,6.63
2023-04-27T02:18:26.934Z,6.53
2023-04-27T02:21:06.281Z,6.66
2023-04-27T02:23:45.644Z,6.71
2023-04-27T02:26:30.586Z,6.20
2023-04-27T02:29:15.192Z,6.53
2023-04-27T02:31:54.971Z,6.55
2023-04-27T02:34:34.272Z,6.15
2023-04-27T02:37:13.623Z,6.34
2023-04-27T02:39:52.920Z,6.38
2023-04-27T02:42:32.347Z,6.35
2023-04-27T02:45:17.617Z,6.34
2023-04-27T02:47:57.291Z,5.96
2023-04-27T02:50:36.642Z,6.34
2023-04-27T02:53:16.693Z,6.38
2023-04-27T02:55:58.864Z,6.33
2023-04-27T02:58:38.433Z,6.56
2023-04-27T03:01:23.993Z,6.17
2023-04-27T03:04:03.527Z,5.92
2023-04-27T03:06:43.062Z,6.30
2023-04-27T03:09:22.392Z,6.06
2023-04-27T03:12:01.794Z,5.74
2023-04-27T03:14:41.104Z,6.22
2023-04-27T03:17:25.532Z,6.53
2023-04-27T03:20:06.200Z,6.05
2023-04-27T03:22:47.066Z,6.47
2023-04-27T03:25:26.482Z,6.49
2023-04-27T03:28:05.842Z,6.13
2023-04-27T03:30:47.552Z,6.46
2023-04-27T03:33:32.997Z,6.29
2023-04-27T03:36:15.071Z,5.83
2023-04-27T03:38:54.525Z,5.95
2023-04-27T03:41:33.979Z,6.18
2023-04-27T03:44:13.303Z,6.04
2023-04-27T03:46:52.670Z,6.20
2023-04-27T03:49:37.309Z,6.17
2023-04-27T03:52:16.952Z,6.31
2023-04-27T03:54:56.582Z,6.56
2023-04-27T03:57:35.979Z,6.29
2023-04-27T04:00:17.164Z,6.63
2023-04-27T04:02:58.002Z,6.78
2023-04-27T04:05:42.678Z,6.71
2023-04-27T04:08:22.177Z,7.26
2023-04-27T04:11:01.565Z,7.06
2023-04-27T04:13:41.029Z,6.78
2023-04-27T04:16:20.807Z,7.12
2023-04-27T04:19:00.406Z,7.10
2023-04-27T04:21:44.840Z,6.88
2023-04-27T04:24:24.162Z,7.47
2023-04-27T04:27:04.634Z,6.98
2023-04-27T04:29:44.090Z,7.14
2023-04-27T04:32:24.459Z,7.19
2023-04-27T04:35:05.032Z,7.44
2023-04-27T04:37:49.610Z,7.35
2023-04-27T04:40:28.970Z,7.46
2023-04-27T04:43:08.536Z,6.83
2023-04-27T04:45:48.469Z,7.20
2023-04-27T04:48:27.821Z,7.33
2023-04-27T04:51:07.308Z,6.85
2023-04-27T04:53:51.801Z,7.25
2023-04-27T04:56:31.154Z,7.37
2023-04-27T04:59:11.031Z,7.47
2023-04-27T05:01:50.518Z,7.58
2023-04-27T05:04:30.150Z,7.39
2023-04-27T05:07:14.052Z,7.23
2023-04-27T05:09:59.932Z,7.53
2023-04-27T05:12:39.327Z,8.01
2023-04-27T05:15:19.414Z,8.23
2023-04-27T05:17:58.855Z,8.94
2023-04-27T05:20:38.284Z,8.65
2023-04-27T05:23:17.878Z,9.69
2023-04-27T05:26:02.319Z,9.97
2023-04-27T05:28:41.732Z,9.38
2023-04-27T05:31:21.067Z,9.58
2023-04-27T05:34:00.596Z,9.51
2023-04-27T05:36:40.185Z,9.48
2023-04-27T05:39:19.611Z,9.34
2023-04-27T05:42:04.350Z,9.42
2023-04-27T05:44:44.458Z,9.70
2023-04-27T05:47:23.954Z,9.22
2023-04-27T05:50:03.417Z,9.56
2023-04-27T05:52:43.237Z,9.72
2023-04-27T05:55:23.014Z,10.43
2023-04-27T05:58:09.366Z,10.52
2023-04-27T06:00:48.950Z,10.78
2023-04-27T06:03:28.661Z,11.33
2023-04-27T06:06:08.999Z,11.40
2023-04-27T06:08:48.439Z,11.65
2023-04-27T06:11:28.005Z,11.94
2023-04-27T06:14:12.645Z,11.71
2023-04-27T06:16:52.328Z,12.81
2023-04-27T06:19:31.773Z,12.58
2023-04-27T06:22:11.143Z,12.64
2023-04-27T06:24:50.555Z,13.63
2023-04-27T06:27:29.920Z,14.04
2023-04-27T06:30:15.726Z,13.16
2023-04-27T06:32:55.149Z,13.57
2023-04-27T06:35:34.668Z,13.29
2023-04-27T06:38:14.024Z,12.70
2023-04-27T06:40:58.181Z,13.33
2023-04-27T06:43:37.892Z,12.53
2023-04-27T06:46:22.506Z,12.11
2023-04-27T06:49:02.854Z,12.03
2023-04-27T06:51:42.860Z,10.99
2023-04-27T06:54:22.571Z,11.37
2023-04-27T06:57:01.961Z,10.53
2023-04-27T06:59:41.280Z,10.09
2023-04-27T07:02:25.839Z,9.55
2023-04-27T07:05:05.409Z,12.04
2023-04-27T07:07:44.903Z,10.99
2023-04-27T07:10:24.291Z,12.07
2023-04-27T07:13:03.741Z,11.32
2023-04-27T07:15:43.333Z,9.94
2023-04-27T07:18:29.374Z,9.20
2023-04-27T07:21:09.409Z,9.32
2023-04-27T07:23:48.700Z,9.34
2023-04-27T07:26:28.311Z,8.59
2023-04-27T07:29:18.735Z,7.92
2023-04-27T07:32:03.084Z,6.39
2023-04-27T07:34:53.603Z,6.03
2023-04-27T07:37:33.937Z,6.21
2023-04-27T07:40:17.584Z,5.99
2023-04-27T07:42:57.618Z,5.96
2023-04-27T07:45:40.496Z,5.98
2023-04-27T07:48:21.637Z,5.99
2023-04-27T07:51:09.152Z,6.21
2023-04-27T07:53:48.570Z,5.73
2023-04-27T07:56:28.068Z,6.15
2023-04-27T07:59:07.493Z,6.06
2023-04-27T08:01:47.008Z,5.90
2023-04-27T08:04:26.609Z,5.98
2023-04-27T08:07:11.820Z,6.05
2023-04-27T08:09:51.308Z,5.96
2023-04-27T08:12:30.783Z,6.24
2023-04-27T08:15:10.330Z,5.98
2023-04-27T08:17:50.006Z,5.91
2023-04-27T08:20:29.450Z,5.64
2023-04-27T08:23:13.934Z,5.52
2023-04-27T08:25:53.312Z,5.96
2023-04-27T08:28:32.736Z,5.71
2023-04-27T08:31:12.180Z,5.54
2023-04-27T08:33:51.695Z,5.35
2023-04-27T08:36:32.050Z,5.56
2023-04-27T08:39:16.710Z,6.05
2023-04-27T08:41:56.208Z,6.30
2023-04-27T08:44:36.725Z,5.86
2023-04-27T08:47:16.679Z,6.46
2023-04-27T08:49:56.029Z,6.06
2023-04-27T08:52:36.366Z,6.29
2023-04-27T08:55:21.373Z,5.96
2023-04-27T08:58:05.502Z,6.61
2023-04-27T09:00:52.574Z,6.52
2023-04-27T09:06:21.518Z,6.66
2023-04-27T09:09:00.973Z,6.69
2023-04-27T09:11:46.782Z,6.76
2023-04-27T09:14:28.309Z,7.57
2023-04-27T09:17:07.756Z,7.81
2023-04-27T09:19:47.288Z,7.73
2023-04-27T09:22:26.793Z,7.82
2023-04-27T09:25:07.493Z,7.25
2023-04-27T09:27:52.170Z,7.53
2023-04-27T09:30:31.969Z,7.56
2023-04-27T09:33:11.661Z,7.88
2023-04-27T09:35:53.980Z,7.69
2023-04-27T09:38:34.031Z,8.49
2023-04-27T09:41:16.302Z,8.59
2023-04-27T09:44:03.127Z,8.57
2023-04-27T09:46:45.160Z,8.71
2023-04-27T09:49:26.994Z,8.04
2023-04-27T09:52:06.399Z,7.99
2023-04-27T09:54:47.699Z,8.58
2023-04-27T09:57:42.024Z,8.16
2023-04-27T10:00:49.009Z,8.14
2023-04-27T10:03:38.750Z,8.05
2023-04-27T10:07:00.987Z,8.06
2023-04-27T10:09:44.800Z,7.82
2023-04-27T10:12:27.416Z,8.01
2023-04-27T10:15:08.572Z,7.79
2023-04-27T10:17:56.545Z,7.96
2023-04-27T10:20:42.343Z,7.85
2023-04-27T10:23:30.762Z,7.69
2023-04-27T10:26:15.708Z,7.48
2023-04-27T10:29:04.224Z,7.37
2023-04-27T10:31:50.590Z,7.19
2023-04-27T10:34:36.139Z,7.18
2023-04-27T10:37:18.150Z,7.34
2023-04-27T10:39:57.510Z,6.83
2023-04-27T10:42:36.970Z,6.95
2023-04-27T10:45:19.149Z,7.51
2023-04-27T10:48:06.495Z,6.98
2023-04-27T10:50:51.310Z,6.97
2023-04-27T10:53:30.655Z,6.76
2023-04-27T10:56:10.653Z,6.39
2023-04-27T10:58:50.774Z,6.74
2023-04-27T11:01:33.364Z,7.01
2023-04-27T11:04:13.513Z,6.41
2023-04-27T11:06:58.898Z,7.04
2023-04-27T11:09:39.157Z,6.92
2023-04-27T11:12:20.404Z,6.44
2023-04-27T11:15:05.030Z,6.50
2023-04-27T11:17:44.721Z,6.28
2023-04-27T11:20:32.098Z,5.73
2023-04-27T11:23:19.898Z,6.13
2023-04-27T11:26:00.740Z,6.04
2023-04-27T11:28:40.073Z,5.89
2023-04-27T11:31:20.210Z,5.71
2023-04-27T11:34:00.788Z,5.79
2023-04-27T11:36:40.283Z,6.11
2023-04-27T11:39:34.779Z,5.69
2023-04-27T11:42:25.100Z,5.96
2023-04-27T11:45:07.163Z,6.11
2023-04-27T11:47:47.818Z,6.90
2023-04-27T11:50:27.313Z,6.38
2023-04-27T11:53:09.044Z,5.77
2023-04-27T11:55:59.826Z,5.82
2023-04-27T11:58:42.605Z,6.06
2023-04-27T12:01:34.845Z,5.80
2023-04-27T12:04:21.454Z,6.55
2023-04-27T12:07:01.066Z,5.83
2023-04-27T12:09:40.425Z,6.39
2023-04-27T12:12:24.962Z,6.29
2023-04-27T12:15:04.371Z,5.73
2023-04-27T12:17:44.015Z,6.44
2023-04-27T12:20:23.656Z,6.56
2023-04-27T12:23:04.402Z,7.13
2023-04-27T12:25:45.364Z,7.13
2023-04-27T12:28:29.806Z,6.97
2023-04-27T12:31:12.038Z,7.13
2023-04-27T12:33:52.259Z,7.24
2023-04-27T12:36:31.567Z,7.28
2023-04-27T12:39:21.965Z,6.96
2023-04-27T12:42:01.824Z,7.18
2023-04-27T12:44:46.302Z,6.73
2023-04-27T12:47:46.007Z,7.04
2023-04-27T12:50:26.345Z,6.90
2023-04-27T12:53:05.873Z,12.59
2023-04-27T12:55:45.235Z,7.37
2023-04-27T12:58:24.558Z,6.83
2023-04-27T13:01:15.827Z,6.53
2023-04-27T13:03:55.628Z,7.11
2023-04-27T13:06:35.794Z,6.53
2023-04-27T13:09:15.206Z,6.33
2023-04-27T13:11:55.473Z,6.08
2023-04-27T13:14:35.556Z,5.63
2023-04-27T13:17:20.043Z,6.40
2023-04-27T13:19:59.377Z,5.77
2023-04-27T13:22:38.784Z,5.61
2023-04-27T13:25:18.256Z,5.63
2023-04-27T13:27:59.208Z,5.62
2023-04-27T13:30:38.598Z,5.78
2023-04-27T13:33:23.957Z,5.41
2023-04-27T13:36:05.095Z,4.99
2023-04-27T13:38:44.852Z,4.95
2023-04-27T13:41:24.233Z,5.07
2023-04-27T13:44:03.628Z,5.08
2023-04-27T13:46:43.047Z,4.65
2023-04-27T13:49:27.634Z,4.85
2023-04-27T13:52:07.271Z,4.44
2023-04-27T13:54:46.649Z,4.20
2023-04-27T13:57:26.052Z,4.92
2023-04-27T14:00:05.567Z,6.41
2023-04-27T14:02:45.473Z,6.34
2023-04-27T14:05:30.088Z,5.36
2023-04-27T14:08:09.599Z,5.02
2023-04-27T14:10:48.977Z,4.35
2023-04-27T14:13:28.706Z,4.28
2023-04-27T14:16:08.492Z,3.93
2023-04-27T14:18:48.156Z,4.12
2023-04-27T14:21:33.571Z,4.02
2023-04-27T14:24:13.262Z,3.52
2023-04-27T14:26:52.800Z,3.76
2023-04-27T14:29:34.202Z,3.98
2023-04-27T14:32:13.958Z,3.88
2023-04-27T14:34:53.327Z,4.14
2023-04-27T14:37:37.742Z,3.84
2023-04-27T14:40:18.148Z,3.86
2023-04-27T14:42:57.481Z,3.66
2023-04-27T14:45:50.271Z,3.90
2023-04-27T14:48:33.800Z,3.63
2023-04-27T14:51:13.837Z,3.87
2023-04-27T14:54:00.536Z,3.64
2023-04-27T14:56:39.949Z,3.79
2023-04-27T14:59:19.322Z,3.67
2023-04-27T15:01:59.004Z,3.62
2023-04-27T15:04:39.003Z,3.87
2023-04-27T15:07:18.325Z,4.12
2023-04-27T15:10:02.804Z,3.88
2023-04-27T15:12:42.119Z,3.57
2023-04-27T15:15:21.858Z,3.62
2023-04-27T15:18:01.256Z,3.47
2023-04-27T15:20:41.024Z,3.51
2023-04-27T15:23:21.073Z,3.37
2023-04-27T15:26:06.675Z,3.36
2023-04-27T15:28:46.075Z,3.66
2023-04-27T15:31:25.474Z,3.60
2023-04-27T15:34:05.019Z,3.80
2023-04-27T15:36:44.432Z,4.08
2023-04-27T15:39:23.792Z,3.51
2023-04-27T15:42:08.288Z,3.66
2023-04-27T15:44:48.044Z,3.66
2023-04-27T15:47:27.996Z,3.58
2023-04-27T15:50:07.422Z,3.47
2023-04-27T15:52:46.917Z,3.45
2023-04-27T15:55:26.640Z,3.52
2023-04-27T15:58:11.121Z,3.57
2023-04-27T16:00:50.610Z,3.36
2023-04-27T16:03:30.126Z,3.53
2023-04-27T16:06:09.531Z,3.57
2023-04-27T16:08:48.932Z,3.51
2023-04-27T16:11:28.532Z,3.30
2023-04-27T16:14:13.144Z,3.71
2023-04-27T16:16:52.936Z,3.65
2023-04-27T16:19:32.545Z,3.93
2023-04-27T16:22:15.041Z,3.57
2023-04-27T16:24:54.349Z,3.65
2023-04-27T16:27:34.130Z,3.95
2023-04-27T16:30:19.814Z,3.80
2023-04-27T16:32:59.891Z,3.92
2023-04-27T16:35:39.907Z,3.67
2023-04-27T16:38:19.211Z,3.40
2023-04-27T16:40:58.661Z,3.42
2023-04-27T16:43:38.008Z,3.18
2023-04-27T16:46:23.184Z,3.25
2023-04-27T16:49:02.781Z,3.61
2023-04-27T16:51:42.126Z,3.37
2023-04-27T16:54:22.166Z,3.23
2023-04-27T16:57:01.556Z,3.75
2023-04-27T16:59:40.883Z,3.78
2023-04-27T17:02:26.028Z,4.63
2023-04-27T17:05:05.940Z,7.39
2023-04-27T17:07:45.308Z,4.50
2023-04-27T17:10:24.944Z,3.76
2023-04-27T17:13:04.272Z,3.33
2023-04-27T17:15:43.633Z,3.35
2023-04-27T17:18:28.306Z,3.37
2023-04-27T17:21:07.590Z,3.19
2023-04-27T17:23:47.814Z,3.70
2023-04-27T17:26:28.077Z,3.72
2023-04-27T17:29:07.418Z,3.47
2023-04-27T17:31:47.035Z,3.35
2023-04-27T17:34:31.444Z,3.38
2023-04-27T17:37:10.801Z,3.48
2023-04-27T17:39:52.772Z,3.72
2023-04-27T17:42:32.142Z,4.07
2023-04-27T17:45:12.031Z,4.60
2023-04-27T17:47:51.669Z,4.25
2023-04-27T17:50:38.654Z,3.78
2023-04-27T17:53:18.137Z,3.71
2023-04-27T17:55:57.584Z,3.45
2023-04-27T17:58:36.980Z,4.53
2023-04-27T18:01:16.459Z,3.67
2023-04-27T18:03:55.890Z,3.65
2023-04-27T18:06:40.357Z,3.21
2023-04-27T18:09:19.979Z,3.27
2023-04-27T18:11:59.420Z,3.59
2023-04-27T18:14:38.840Z,3.54
2023-04-27T18:17:18.106Z,3.97
2023-04-27T18:20:07.494Z,3.54
2023-04-27T18:22:53.682Z,3.47
2023-04-27T18:25:33.295Z,3.51
2023-04-27T18:28:12.705Z,3.80
2023-04-27T18:30:52.066Z,3.60
2023-04-27T18:33:31.360Z,3.75
2023-04-27T18:36:10.831Z,3.74
2023-04-27T18:38:55.265Z,3.84
2023-04-27T18:41:34.678Z,3.91
2023-04-27T18:44:14.295Z,3.98
2023-04-27T18:46:53.773Z,4.06
2023-04-27T18:49:33.353Z,4.10
2023-04-27T18:52:13.016Z,3.81
2023-04-27T18:54:57.393Z,3.63
2023-04-27T18:57:36.690Z,3.77
2023-04-27T19:00:17.271Z,3.81
2023-04-27T19:02:57.017Z,4.02
2023-04-27T19:05:37.633Z,3.48
2023-04-27T19:08:16.985Z,3.69
2023-04-27T19:11:03.108Z,3.79
2023-04-27T19:13:44.355Z,3.84
2023-04-27T19:16:23.723Z,3.84
2023-04-27T19:19:03.139Z,3.88
2023-04-27T19:21:43.162Z,4.61
2023-04-27T19:24:22.556Z,4.46
2023-04-27T19:27:07.066Z,4.42
2023-04-27T19:29:58.366Z,4.25
2023-04-27T19:32:38.002Z,4.55
2023-04-27T19:35:17.449Z,4.97
2023-04-27T19:37:57.192Z,6.32
2023-04-27T19:40:36.676Z,5.45
2023-04-27T19:43:21.089Z,4.72
2023-04-27T19:46:00.459Z,4.54
2023-04-27T19:48:41.145Z,5.11
2023-04-27T19:51:21.735Z,5.16
2023-04-27T19:54:01.024Z,4.88
2023-04-27T19:56:40.425Z,4.69
2023-04-27T19:59:24.998Z,4.96
2023-04-27T20:02:04.481Z,4.74
2023-04-27T20:04:44.434Z,4.74
2023-04-27T20:07:23.977Z,5.07
2023-04-27T20:10:04.322Z,5.08
2023-04-27T20:12:54.465Z,5.08
2023-04-27T20:15:40.316Z,5.05
2023-04-27T20:18:20.540Z,4.90
2023-04-27T20:20:59.879Z,5.04
2023-04-27T20:23:39.207Z,4.86
2023-04-27T20:26:18.574Z,5.22
2023-04-27T20:28:57.860Z,4.90
2023-04-27T20:31:42.367Z,5.03
2023-04-27T20:34:21.808Z,5.08
2023-04-27T20:37:01.193Z,5.11
2023-04-27T20:39:40.525Z,5.53
2023-04-27T20:42:20.003Z,5.30
2023-04-27T20:44:59.631Z,5.37
2023-04-27T20:47:44.055Z,5.74
2023-04-27T20:50:23.461Z,5.92
2023-04-27T20:53:02.746Z,5.77
2023-04-27T20:55:42.248Z,5.60
2023-04-27T20:58:21.541Z,6.11
2023-04-27T21:01:00.968Z,6.14
2023-04-27T21:03:45.527Z,6.32
2023-04-27T21:06:25.968Z,6.14
2023-04-27T21:09:05.293Z,6.23
2023-04-27T21:11:44.598Z,6.72
2023-04-27T21:14:24.001Z,6.62
2023-04-27T21:17:03.422Z,6.65
2023-04-27T21:19:48.003Z,6.62
2023-04-27T21:22:27.623Z,6.27
2023-04-27T21:25:06.940Z,6.51
2023-04-27T21:27:46.281Z,6.35
2023-04-27T21:30:25.791Z,6.93
2023-04-27T21:33:05.192Z,6.28
2023-04-27T21:35:49.600Z,6.58
2023-04-27T21:38:28.930Z,6.60
2023-04-27T21:41:08.689Z,6.90
2023-04-27T21:43:48.021Z,6.78
2023-04-27T21:46:27.441Z,6.65
2023-04-27T21:49:06.762Z,6.88
2023-04-27T21:51:51.124Z,6.72
2023-04-27T21:54:30.418Z,7.12
2023-04-27T21:57:10.350Z,6.96
2023-04-27T21:59:49.617Z,7.07
2023-04-27T22:02:30.733Z,7.26
2023-04-27T22:05:10.727Z,7.45
2023-04-27T22:07:55.150Z,7.61
2023-04-27T22:10:34.491Z,7.49
2023-04-27T22:15:57.083Z,7.94
2023-04-27T22:18:36.479Z,7.90
2023-04-27T22:21:15.818Z,8.27
2023-04-27T22:24:00.221Z,8.56
2023-04-27T22:26:39.560Z,8.21
2023-04-27T22:29:18.856Z,8.33
2023-04-27T22:31:58.586Z,8.63
2023-04-27T22:34:38.543Z,8.26
2023-04-27T22:37:17.889Z,8.21
2023-04-27T22:40:02.735Z,8.53
2023-04-27T22:42:42.550Z,8.77
2023-04-27T22:45:22.068Z,9.09
2023-04-27T22:48:01.460Z,8.94
2023-04-27T22:50:40.931Z,9.15
2023-04-27T22:53:20.268Z,9.17
2023-04-27T22:56:04.615Z,9.41
2023-04-27T22:58:43.990Z,9.18
2023-04-27T23:01:23.353Z,8.99
2023-04-27T23:04:03.196Z,8.95
2023-04-27T23:06:43.155Z,9.40
2023-04-27T23:09:22.452Z,8.74
2023-04-27T23:12:08.960Z,8.91
2023-04-27T23:14:48.434Z,8.37
2023-04-27T23:17:31.932Z,8.51
2023-04-27T23:20:26.618Z,8.49
2023-04-27T23:23:07.037Z,8.44
2023-04-27T23:25:46.344Z,8.37
2023-04-27T23:28:30.765Z,8.42
2023-04-27T23:31:10.158Z,8.31
2023-04-27T23:33:49.626Z,8.48
2023-04-27T23:36:29.432Z,8.87
2023-04-27T23:39:08.880Z,8.80
2023-04-27T23:41:48.267Z,8.66
2023-04-27T23:44:32.704Z,8.61
2023-04-27T23:47:12.230Z,8.42
2023-04-27T23:49:51.938Z,8.33
2023-04-27T23:52:31.261Z,8.37
2023-04-27T23:55:10.759Z,8.67
2023-04-27T23:57:50.583Z,8.75
